createdAt,value
2017-12-11T00:00:22.115Z,0
2017-12-11T00:01:43.915Z,0
2017-12-11T00:03:05.891Z,0
2017-12-11T00:04:27.345Z,0
2017-12-11T00:05:49.487Z,0
2017-12-11T00:07:11.508Z,0
2017-12-11T00:08:33.107Z,0
2017-12-11T00:09:55.068Z,0
2017-12-11T00:11:17.048Z,0
2017-12-11T00:12:38.505Z,0
2017-12-11T00:13:59.928Z,0
2017-12-11T00:15:21.921Z,0
2017-12-11T00:16:43.345Z,0
2017-12-11T00:18:05.597Z,0
2017-12-11T00:19:27.736Z,0
2017-12-11T00:20:49.715Z,0
2017-12-11T00:22:11.488Z,0
2017-12-11T00:23:32.915Z,0
2017-12-11T00:24:54.649Z,0
2017-12-11T00:26:16.910Z,0
2017-12-11T00:27:38.858Z,0
2017-12-11T00:29:00.371Z,0
2017-12-11T00:30:22.236Z,0
2017-12-11T00:31:44.084Z,0
2017-12-11T00:33:05.778Z,0
2017-12-11T00:34:27.214Z,0
2017-12-11T00:35:48.895Z,0
2017-12-11T00:37:10.335Z,0
2017-12-11T00:38:31.745Z,0
2017-12-11T00:39:53.701Z,0
2017-12-11T00:41:15.655Z,0
2017-12-11T00:42:37.346Z,0
2017-12-11T00:43:59.567Z,0
2017-12-11T00:45:21.532Z,0
2017-12-11T00:46:43.798Z,0
2017-12-11T00:48:05.488Z,0
2017-12-11T00:49:27.457Z,0
2017-12-11T00:50:49.687Z,0
2017-12-11T00:52:11.385Z,0
2017-12-11T00:53:33.346Z,0
2017-12-11T00:54:55.116Z,0
2017-12-11T00:56:17.072Z,0
2017-12-11T00:57:38.485Z,0
2017-12-11T00:59:00.176Z,0
2017-12-11T01:00:21.694Z,0
2017-12-11T01:01:42.843Z,0
2017-12-11T01:03:04.788Z,0
2017-12-11T01:04:27.058Z,0
2017-12-11T01:05:49.024Z,0
2017-12-11T01:07:11.006Z,0
2017-12-11T01:08:33.272Z,0
2017-12-11T01:09:54.971Z,0
2017-12-11T01:11:16.681Z,0
2017-12-11T01:12:38.743Z,0
2017-12-11T01:14:00.720Z,0
2017-12-11T01:15:22.681Z,0
2017-12-11T01:16:44.222Z,0
2017-12-11T01:18:06.231Z,0
2017-12-11T01:19:27.655Z,0
2017-12-11T01:20:49.361Z,0
2017-12-11T01:22:11.047Z,0
2017-12-11T01:23:33.015Z,0
2017-12-11T01:24:55.295Z,0
2017-12-11T01:26:17.523Z,0
2017-12-11T01:27:38.981Z,0
2017-12-11T01:29:00.955Z,0
2017-12-11T01:30:23.184Z,0
2017-12-11T01:31:44.886Z,0
2017-12-11T01:33:06.667Z,0
2017-12-11T01:34:28.086Z,0
2017-12-11T01:35:49.793Z,0
2017-12-11T01:37:11.265Z,0
2017-12-11T01:38:32.696Z,0
2017-12-11T01:39:54.375Z,0
2017-12-11T01:41:16.332Z,0
2017-12-11T01:42:38.558Z,0
2017-12-11T01:44:00.254Z,0
2017-12-11T01:45:21.407Z,0
2017-12-11T01:46:43.101Z,0
2017-12-11T01:48:05.124Z,0
2017-12-11T01:49:26.565Z,0
2017-12-11T01:50:48.586Z,0
2017-12-11T01:52:10.067Z,0
2017-12-11T01:53:32.022Z,0
2017-12-11T01:54:54.256Z,0
2017-12-11T01:56:15.975Z,0
2017-12-11T01:57:37.805Z,0
2017-12-11T01:59:00.092Z,0
2017-12-11T02:00:21.248Z,0
2017-12-11T02:01:43.305Z,0
2017-12-11T02:03:05.534Z,0
2017-12-11T02:04:27.498Z,0
2017-12-11T02:05:49.454Z,0
2017-12-11T02:07:11.414Z,0
2017-12-11T02:08:33.148Z,0
2017-12-11T02:09:55.485Z,0
2017-12-11T02:11:16.652Z,0
2017-12-11T02:12:38.722Z,0
2017-12-11T02:14:00.341Z,0
2017-12-11T02:15:22.045Z,0
2017-12-11T02:16:43.458Z,0
2017-12-11T02:18:05.085Z,0
2017-12-11T02:19:27.045Z,0
2017-12-11T02:20:49.033Z,0
2017-12-11T02:22:10.984Z,0
2017-12-11T02:23:32.774Z,0
2017-12-11T02:24:54.455Z,0
2017-12-11T02:26:16.735Z,0
2017-12-11T02:27:38.767Z,0
2017-12-11T02:29:01.006Z,0
2017-12-11T02:30:22.480Z,0
2017-12-11T02:31:44.248Z,0
2017-12-11T02:33:06.205Z,0
2017-12-11T02:34:28.428Z,0
2017-12-11T02:35:50.469Z,0
2017-12-11T02:37:11.980Z,0
2017-12-11T02:38:33.705Z,0
2017-12-11T02:39:55.445Z,0
2017-12-11T02:41:17.406Z,0
2017-12-11T02:42:38.813Z,0
2017-12-11T02:44:00.772Z,0
2017-12-11T02:45:23.076Z,0
2017-12-11T02:46:44.524Z,0
2017-12-11T02:48:05.945Z,0
2017-12-11T02:49:28.164Z,0
2017-12-11T02:50:49.327Z,0
2017-12-11T02:52:10.766Z,0
2017-12-11T02:53:32.455Z,0
2017-12-11T02:54:54.483Z,0
2017-12-11T02:56:16.385Z,0
2017-12-11T02:57:38.081Z,0
2017-12-11T02:59:00.034Z,0
2017-12-11T03:00:21.986Z,0
2017-12-11T03:01:43.734Z,0
2017-12-11T03:03:04.891Z,0
2017-12-11T03:04:27.121Z,0
2017-12-11T03:05:49.418Z,0
2017-12-11T03:07:11.100Z,0
2017-12-11T03:08:33.046Z,0
2017-12-11T03:09:54.731Z,0
2017-12-11T03:11:16.163Z,0
2017-12-11T03:12:37.591Z,0
2017-12-11T03:13:59.645Z,0
2017-12-11T03:15:21.803Z,0
2017-12-11T03:16:43.594Z,0
2017-12-11T03:18:05.535Z,0
2017-12-11T03:19:27.504Z,0
2017-12-11T03:20:48.934Z,0
2017-12-11T03:22:10.895Z,0
2017-12-11T03:23:32.851Z,0
2017-12-11T03:24:54.273Z,0
2017-12-11T03:26:15.717Z,0
2017-12-11T03:27:37.824Z,0
2017-12-11T03:28:59.767Z,0
2017-12-11T03:30:21.994Z,0
2017-12-11T03:31:43.424Z,0
2017-12-11T03:33:05.664Z,0
2017-12-11T03:34:27.363Z,0
2017-12-11T03:35:49.170Z,0
2017-12-11T03:37:10.852Z,0
2017-12-11T03:38:32.534Z,0
2017-12-11T03:39:54.336Z,0
2017-12-11T03:41:16.331Z,0
2017-12-11T03:42:38.025Z,0
2017-12-11T03:44:00.005Z,0
2017-12-11T03:45:21.720Z,0
2017-12-11T03:46:43.154Z,0
2017-12-11T03:48:04.307Z,0
2017-12-11T03:49:26.325Z,0
2017-12-11T03:50:47.752Z,0
2017-12-11T03:52:09.815Z,0
2017-12-11T03:53:32.057Z,0
2017-12-11T03:54:54.435Z,0
2017-12-11T03:56:16.666Z,0
2017-12-11T03:57:38.433Z,0
2017-12-11T03:58:59.693Z,0
2017-12-11T04:00:21.847Z,0
2017-12-11T04:01:43.415Z,0
2017-12-11T04:03:04.586Z,0
2017-12-11T04:04:26.604Z,0
2017-12-11T04:05:48.052Z,0
2017-12-11T04:07:09.249Z,0
2017-12-11T04:08:31.475Z,0
2017-12-11T04:09:53.457Z,0
2017-12-11T04:11:15.464Z,0
2017-12-11T04:12:37.170Z,0
2017-12-11T04:13:58.587Z,0
2017-12-11T04:15:20.015Z,0
2017-12-11T04:16:42.282Z,0
2017-12-11T04:18:03.558Z,0
2017-12-11T04:19:25.282Z,0
2017-12-11T04:20:47.075Z,0
2017-12-11T04:22:08.503Z,0
2017-12-11T04:23:30.734Z,0
2017-12-11T04:24:52.325Z,0
2017-12-11T04:26:14.004Z,0
2017-12-11T04:27:35.983Z,0
2017-12-11T04:28:58.003Z,0
2017-12-11T04:30:20.204Z,0
2017-12-11T04:31:42.445Z,0
2017-12-11T04:33:03.944Z,0
2017-12-11T04:34:26.297Z,0
2017-12-11T04:35:48.465Z,0
2017-12-11T04:37:09.991Z,0
2017-12-11T04:38:31.945Z,0
2017-12-11T04:39:54.258Z,0
2017-12-11T04:41:16.000Z,0
2017-12-11T04:42:37.746Z,0
2017-12-11T04:43:59.280Z,0
2017-12-11T04:45:20.970Z,0
2017-12-11T04:46:43.185Z,0
2017-12-11T04:48:04.613Z,0
2017-12-11T04:49:26.144Z,0
2017-12-11T04:50:48.117Z,0
2017-12-11T04:52:09.854Z,0
2017-12-11T04:53:31.544Z,0
2017-12-11T04:54:52.954Z,0
2017-12-11T04:56:14.525Z,0
2017-12-11T04:57:36.224Z,0
2017-12-11T04:58:58.281Z,0
2017-12-11T05:00:20.233Z,0
2017-12-11T05:01:42.201Z,0
2017-12-11T05:03:03.895Z,0
2017-12-11T05:04:25.583Z,0
2017-12-11T05:05:47.537Z,0
2017-12-11T05:07:09.256Z,0
2017-12-11T05:08:30.937Z,0
2017-12-11T05:09:52.894Z,0
2017-12-11T05:11:14.314Z,0
2017-12-11T05:12:35.744Z,0
2017-12-11T05:13:57.731Z,0
2017-12-11T05:15:19.725Z,0
2017-12-11T05:16:41.687Z,0
2017-12-11T05:18:03.634Z,0
2017-12-11T05:19:25.604Z,0
2017-12-11T05:20:47.663Z,0
2017-12-11T05:22:09.092Z,0
2017-12-11T05:23:30.771Z,0
2017-12-11T05:24:52.559Z,0
2017-12-11T05:26:14.037Z,0
2017-12-11T05:27:35.734Z,0
2017-12-11T05:28:56.644Z,0
2017-12-11T05:30:18.636Z,0
2017-12-11T05:31:40.664Z,0
2017-12-11T05:33:02.078Z,0
2017-12-11T05:34:23.823Z,0
2017-12-11T05:35:45.510Z,0
2017-12-11T05:37:06.655Z,0
2017-12-11T05:38:28.656Z,0
2017-12-11T05:39:50.982Z,0
2017-12-11T05:41:12.672Z,0
2017-12-11T05:42:34.375Z,0
2017-12-11T05:43:56.327Z,0
2017-12-11T05:45:18.024Z,0
2017-12-11T05:46:39.745Z,0
2017-12-11T05:48:01.746Z,0
2017-12-11T05:49:23.423Z,0
2017-12-11T05:50:44.613Z,0
2017-12-11T05:52:06.364Z,0
2017-12-11T05:53:28.594Z,0
2017-12-11T05:54:50.776Z,0
2017-12-11T05:56:12.774Z,0
2017-12-11T05:57:34.594Z,0
2017-12-11T05:58:56.033Z,0
2017-12-11T06:00:17.190Z,0
2017-12-11T06:01:39.683Z,0
2017-12-11T06:03:01.890Z,0
2017-12-11T06:04:23.863Z,0
2017-12-11T06:05:45.586Z,0
2017-12-11T06:07:07.603Z,0
2017-12-11T06:08:29.564Z,0
2017-12-11T06:09:50.443Z,0
2017-12-11T06:11:12.422Z,0
2017-12-11T06:12:34.126Z,0
2017-12-11T06:13:56.226Z,0
2017-12-11T06:15:18.294Z,0
2017-12-11T06:16:40.275Z,0
2017-12-11T06:18:02.224Z,0
2017-12-11T06:19:23.683Z,0
2017-12-11T06:20:45.382Z,0
2017-12-11T06:22:07.163Z,0
2017-12-11T06:23:28.893Z,0
2017-12-11T06:24:50.880Z,0
2017-12-11T06:26:13.124Z,0
2017-12-11T06:27:34.813Z,0
2017-12-11T06:28:56.775Z,0
2017-12-11T06:30:18.786Z,0
2017-12-11T06:31:40.213Z,0
2017-12-11T06:33:01.907Z,0
2017-12-11T06:34:23.863Z,0
2017-12-11T06:35:45.825Z,0
2017-12-11T06:37:08.093Z,0
2017-12-11T06:38:30.061Z,0
2017-12-11T06:39:52.008Z,0
2017-12-11T06:41:13.975Z,0
2017-12-11T06:42:35.392Z,0
2017-12-11T06:43:57.625Z,0
2017-12-11T06:45:19.337Z,0
2017-12-11T06:46:41.070Z,0
2017-12-11T06:48:02.812Z,0
2017-12-11T06:49:24.832Z,0
2017-12-11T06:50:46.523Z,4
2017-12-11T06:52:08.752Z,4
2017-12-11T06:53:30.717Z,4
2017-12-11T06:54:52.958Z,0
2017-12-11T06:56:14.743Z,4
2017-12-11T06:57:36.421Z,4
2017-12-11T06:58:57.903Z,8
2017-12-11T07:00:20.004Z,8
2017-12-11T07:01:41.692Z,8
2017-12-11T07:03:03.914Z,8
2017-12-11T07:04:25.934Z,12
2017-12-11T07:05:48.213Z,16
2017-12-11T07:07:10.162Z,20
2017-12-11T07:08:31.397Z,20
2017-12-11T07:09:53.376Z,24
2017-12-11T07:11:15.061Z,32
2017-12-11T07:12:37.033Z,40
2017-12-11T07:13:58.723Z,48
2017-12-11T07:15:20.963Z,64
2017-12-11T07:16:42.954Z,76
2017-12-11T07:18:05.184Z,88
2017-12-11T07:19:27.153Z,104
2017-12-11T07:20:49.115Z,120
2017-12-11T07:22:11.072Z,136
2017-12-11T07:23:32.929Z,156
2017-12-11T07:24:54.887Z,176
2017-12-11T07:26:16.615Z,196
2017-12-11T07:27:38.316Z,220
2017-12-11T07:29:00.363Z,244
2017-12-11T07:30:22.334Z,264
2017-12-11T07:31:44.114Z,288
2017-12-11T07:33:06.068Z,312
2017-12-11T07:34:28.017Z,344
2017-12-11T07:35:49.723Z,376
2017-12-11T07:37:11.430Z,408
2017-12-11T07:38:33.393Z,428
2017-12-11T07:39:55.223Z,460
2017-12-11T07:41:17.250Z,488
2017-12-11T07:42:39.262Z,512
2017-12-11T07:44:00.973Z,532
2017-12-11T07:45:22.696Z,556
2017-12-11T07:46:44.651Z,572
2017-12-11T07:48:06.110Z,604
2017-12-11T07:49:27.800Z,640
2017-12-11T07:50:49.783Z,684
2017-12-11T07:52:11.593Z,728
2017-12-11T07:53:33.562Z,736
2017-12-11T07:54:55.279Z,776
2017-12-11T07:56:17.057Z,768
2017-12-11T07:57:38.733Z,716
2017-12-11T07:59:00.162Z,740
2017-12-11T08:00:21.842Z,760
2017-12-11T08:01:43.793Z,776
2017-12-11T08:03:05.213Z,812
2017-12-11T08:04:27.174Z,880
2017-12-11T08:05:49.299Z,872
2017-12-11T08:07:11.284Z,860
2017-12-11T08:08:32.710Z,848
2017-12-11T08:09:54.517Z,888
2017-12-11T08:11:16.307Z,980
2017-12-11T08:12:38.642Z,1032
2017-12-11T08:14:00.163Z,1040
2017-12-11T08:15:21.902Z,1048
2017-12-11T08:16:44.121Z,1060
2017-12-11T08:18:05.882Z,1116
2017-12-11T08:19:28.376Z,1220
2017-12-11T08:20:50.166Z,1252
2017-12-11T08:22:12.133Z,1228
2017-12-11T08:23:33.629Z,1260
2017-12-11T08:24:55.642Z,1316
2017-12-11T08:26:17.331Z,1396
2017-12-11T08:27:39.114Z,1424
2017-12-11T08:29:00.564Z,1440
2017-12-11T08:30:22.642Z,1452
2017-12-11T08:31:44.967Z,1500
2017-12-11T08:33:06.667Z,1496
2017-12-11T08:34:28.367Z,1520
2017-12-11T08:35:50.325Z,1564
2017-12-11T08:37:12.553Z,1596
2017-12-11T08:38:33.983Z,1632
2017-12-11T08:39:55.436Z,1664
2017-12-11T08:41:17.432Z,1760
2017-12-11T08:42:39.161Z,1784
2017-12-11T08:44:00.864Z,1764
2017-12-11T08:45:23.118Z,1780
2017-12-11T08:46:44.813Z,1832
2017-12-11T08:48:07.058Z,1892
2017-12-11T08:49:28.767Z,1984
2017-12-11T08:50:50.741Z,2080
2017-12-11T08:52:12.442Z,2176
2017-12-11T08:53:34.403Z,2068
2017-12-11T08:54:56.355Z,1876
2017-12-11T08:56:17.784Z,1816
2017-12-11T08:57:39.515Z,1924
2017-12-11T08:59:01.813Z,2116
2017-12-11T09:00:23.612Z,2236
2017-12-11T09:01:45.120Z,2260
2017-12-11T09:03:06.924Z,2288
2017-12-11T09:04:29.182Z,2296
2017-12-11T09:05:51.152Z,2232
2017-12-11T09:07:12.603Z,2180
2017-12-11T09:08:34.011Z,2096
2017-12-11T09:09:55.452Z,2048
2017-12-11T09:11:17.594Z,2072
2017-12-11T09:12:39.564Z,2132
2017-12-11T09:14:01.393Z,2164
2017-12-11T09:15:23.619Z,2204
2017-12-11T09:16:45.045Z,2288
2017-12-11T09:18:06.814Z,2420
2017-12-11T09:19:28.801Z,2536
2017-12-11T09:20:50.551Z,2496
2017-12-11T09:22:12.077Z,2408
2017-12-11T09:23:34.042Z,2424
2017-12-11T09:24:55.747Z,2588
2017-12-11T09:26:17.779Z,2616
2017-12-11T09:27:39.477Z,2484
2017-12-11T09:29:00.914Z,2444
2017-12-11T09:30:22.951Z,2628
2017-12-11T09:31:44.652Z,2844
2017-12-11T09:33:06.136Z,2852
2017-12-11T09:34:27.825Z,2796
2017-12-11T09:35:49.914Z,2780
2017-12-11T09:37:11.896Z,2692
2017-12-11T09:38:33.648Z,2580
2017-12-11T09:39:54.895Z,2652
2017-12-11T09:41:16.623Z,2804
2017-12-11T09:42:38.312Z,2716
2017-12-11T09:44:00.321Z,2560
2017-12-11T09:45:22.642Z,2504
2017-12-11T09:46:44.401Z,2592
2017-12-11T09:48:06.392Z,2684
2017-12-11T09:49:28.134Z,2664
2017-12-11T09:50:49.563Z,2576
2017-12-11T09:52:11.548Z,2444
2017-12-11T09:53:33.569Z,2496
2017-12-11T09:54:55.574Z,2460
2017-12-11T09:56:17.282Z,2420
2017-12-11T09:57:38.983Z,2452
2017-12-11T09:59:00.743Z,2452
2017-12-11T10:00:22.706Z,2464
2017-12-11T10:01:44.803Z,2512
2017-12-11T10:03:07.103Z,2476
2017-12-11T10:04:29.362Z,2416
2017-12-11T10:05:51.362Z,2356
2017-12-11T10:07:13.453Z,2272
2017-12-11T10:08:35.752Z,2136
2017-12-11T10:09:57.794Z,2036
2017-12-11T10:11:19.772Z,2028
2017-12-11T10:12:41.603Z,2040
2017-12-11T10:14:03.054Z,2016
2017-12-11T10:15:25.033Z,2032
2017-12-11T10:16:47.286Z,2116
2017-12-11T10:18:09.259Z,2252
2017-12-11T10:19:31.486Z,2484
2017-12-11T10:20:54.918Z,2708
2017-12-11T10:22:16.333Z,2632
2017-12-11T10:23:37.759Z,2580
2017-12-11T10:24:59.861Z,2628
2017-12-11T10:26:21.832Z,2608
2017-12-11T10:27:43.612Z,2592
2017-12-11T10:29:05.311Z,2596
2017-12-11T10:30:26.823Z,2628
2017-12-11T10:31:48.795Z,2568
2017-12-11T10:33:10.774Z,2612
2017-12-11T10:34:32.752Z,2728
2017-12-11T10:35:55.015Z,2964
2017-12-11T10:37:16.432Z,3104
2017-12-11T10:38:38.135Z,3092
2017-12-11T10:39:59.566Z,3080
2017-12-11T10:41:22.055Z,3116
2017-12-11T10:42:44.307Z,3036
2017-12-11T10:44:06.786Z,2960
2017-12-11T10:45:28.743Z,2908
2017-12-11T10:46:50.732Z,2900
2017-12-11T10:48:12.433Z,2948
2017-12-11T10:49:33.646Z,2948
2017-12-11T10:50:55.675Z,2892
2017-12-11T10:52:17.126Z,3008
2017-12-11T10:53:38.903Z,3136
2017-12-11T10:55:00.620Z,3188
2017-12-11T10:56:22.863Z,3184
2017-12-11T10:57:44.807Z,3172
2017-12-11T10:59:06.788Z,3136
2017-12-11T11:00:28.487Z,3092
2017-12-11T11:01:50.484Z,3044
2017-12-11T11:03:12.306Z,3016
2017-12-11T11:04:33.725Z,3020
2017-12-11T11:05:55.772Z,3016
2017-12-11T11:07:17.292Z,2964
2017-12-11T11:08:38.733Z,2916
2017-12-11T11:10:00.523Z,2904
2017-12-11T11:11:22.223Z,2944
2017-12-11T11:12:43.485Z,3020
2017-12-11T11:14:04.964Z,3080
2017-12-11T11:15:26.664Z,3100
2017-12-11T11:16:48.903Z,3128
2017-12-11T11:18:10.610Z,3132
2017-12-11T11:19:32.566Z,3104
2017-12-11T11:20:54.024Z,3060
2017-12-11T11:22:15.753Z,3040
2017-12-11T11:23:37.982Z,2996
2017-12-11T11:24:59.984Z,2928
2017-12-11T11:26:21.960Z,2892
2017-12-11T11:27:43.784Z,2872
2017-12-11T11:29:05.503Z,2860
2017-12-11T11:30:27.215Z,2844
2017-12-11T11:31:49.517Z,2828
2017-12-11T11:33:11.069Z,2808
2017-12-11T11:34:33.045Z,2772
2017-12-11T11:35:55.283Z,2740
2017-12-11T11:37:16.983Z,2712
2017-12-11T11:38:38.421Z,2688
2017-12-11T11:40:00.324Z,2648
2017-12-11T11:41:22.053Z,2584
2017-12-11T11:42:43.753Z,2576
2017-12-11T11:44:05.724Z,2616
2017-12-11T11:45:27.804Z,2660
2017-12-11T11:46:50.196Z,2692
2017-12-11T11:48:12.166Z,2712
2017-12-11T11:49:34.162Z,2728
2017-12-11T11:50:55.593Z,2744
2017-12-11T11:52:17.053Z,2792
2017-12-11T11:53:38.759Z,2856
2017-12-11T11:55:00.764Z,2840
2017-12-11T11:56:22.479Z,2764
2017-12-11T11:57:44.204Z,2788
2017-12-11T11:59:06.185Z,2780
2017-12-11T12:00:27.604Z,2748
2017-12-11T12:01:49.342Z,2776
2017-12-11T12:03:11.103Z,2800
2017-12-11T12:04:32.522Z,2816
2017-12-11T12:05:54.254Z,2808
2017-12-11T12:07:16.497Z,2760
2017-12-11T12:08:38.836Z,2700
2017-12-11T12:10:00.265Z,2640
2017-12-11T12:11:21.694Z,2624
2017-12-11T12:12:43.655Z,2648
2017-12-11T12:14:05.089Z,2684
2017-12-11T12:15:26.581Z,2700
2017-12-11T12:16:48.333Z,2752
2017-12-11T12:18:09.765Z,2752
2017-12-11T12:19:31.995Z,2764
2017-12-11T12:20:53.956Z,2784
2017-12-11T12:22:15.649Z,2820
2017-12-11T12:23:37.638Z,2876
2017-12-11T12:24:59.076Z,2844
2017-12-11T12:26:21.323Z,2824
2017-12-11T12:27:43.295Z,2860
2017-12-11T12:29:05.425Z,2908
2017-12-11T12:30:27.129Z,2992
2017-12-11T12:31:49.158Z,3056
2017-12-11T12:33:11.114Z,3016
2017-12-11T12:34:32.546Z,2920
2017-12-11T12:35:54.586Z,2840
2017-12-11T12:37:16.584Z,2816
2017-12-11T12:38:37.998Z,2804
2017-12-11T12:40:00.175Z,2768
2017-12-11T12:41:22.476Z,2688
2017-12-11T12:42:44.486Z,2564
2017-12-11T12:44:06.881Z,2464
2017-12-11T12:45:28.296Z,2420
2017-12-11T12:46:50.281Z,2416
2017-12-11T12:48:12.035Z,2356
2017-12-11T12:49:34.002Z,2260
2017-12-11T12:50:56.045Z,2184
2017-12-11T12:52:17.725Z,2096
2017-12-11T12:53:39.456Z,2020
2017-12-11T12:55:01.422Z,1948
2017-12-11T12:56:23.558Z,1912
2017-12-11T12:57:45.246Z,1876
2017-12-11T12:59:06.956Z,1816
2017-12-11T13:00:28.638Z,1740
2017-12-11T13:01:51.179Z,1732
2017-12-11T13:03:13.236Z,1712
2017-12-11T13:04:35.203Z,1712
2017-12-11T13:05:56.692Z,1732
2017-12-11T13:07:18.486Z,1748
2017-12-11T13:08:40.238Z,1752
2017-12-11T13:10:02.196Z,1764
2017-12-11T13:11:24.170Z,1756
2017-12-11T13:12:46.435Z,1736
2017-12-11T13:14:08.420Z,1704
2017-12-11T13:15:30.837Z,1656
2017-12-11T13:16:52.518Z,1628
2017-12-11T13:18:14.207Z,1620
2017-12-11T13:19:36.445Z,1576
2017-12-11T13:20:58.575Z,1560
2017-12-11T13:22:20.596Z,1552
2017-12-11T13:23:42.855Z,1556
2017-12-11T13:25:05.156Z,1560
2017-12-11T13:26:26.867Z,1544
2017-12-11T13:27:48.605Z,1536
2017-12-11T13:29:10.366Z,1536
2017-12-11T13:30:32.609Z,1616
2017-12-11T13:31:54.304Z,1760
2017-12-11T13:33:16.037Z,1856
2017-12-11T13:34:37.723Z,1872
2017-12-11T13:35:59.437Z,1896
2017-12-11T13:37:21.417Z,1956
2017-12-11T13:38:43.115Z,2052
2017-12-11T13:40:05.236Z,2120
2017-12-11T13:41:26.692Z,2128
2017-12-11T13:42:48.137Z,2216
2017-12-11T13:44:10.220Z,2184
2017-12-11T13:45:31.647Z,2080
2017-12-11T13:46:53.087Z,1952
2017-12-11T13:48:14.521Z,1808
2017-12-11T13:49:36.371Z,1680
2017-12-11T13:50:57.896Z,1532
2017-12-11T13:52:19.586Z,1468
2017-12-11T13:53:41.305Z,1432
2017-12-11T13:55:02.727Z,1348
2017-12-11T13:56:24.765Z,1384
2017-12-11T13:57:46.777Z,1324
2017-12-11T13:59:08.343Z,1420
2017-12-11T14:00:30.312Z,1444
2017-12-11T14:01:52.701Z,1432
2017-12-11T14:03:14.862Z,1316
2017-12-11T14:04:36.645Z,1240
2017-12-11T14:05:58.617Z,1160
2017-12-11T14:07:20.943Z,1140
2017-12-11T14:08:42.938Z,1044
2017-12-11T14:10:04.453Z,932
2017-12-11T14:11:26.526Z,840
2017-12-11T14:12:48.777Z,784
2017-12-11T14:14:10.505Z,748
2017-12-11T14:15:32.203Z,684
2017-12-11T14:16:54.227Z,636
2017-12-11T14:18:16.478Z,564
2017-12-11T14:19:38.189Z,500
2017-12-11T14:20:59.652Z,464
2017-12-11T14:22:21.717Z,432
2017-12-11T14:23:43.988Z,360
2017-12-11T14:25:05.477Z,316
2017-12-11T14:26:27.735Z,292
2017-12-11T14:27:49.457Z,288
2017-12-11T14:29:11.418Z,268
2017-12-11T14:30:33.680Z,244
2017-12-11T14:31:55.377Z,228
2017-12-11T14:33:17.628Z,224
2017-12-11T14:34:39.337Z,224
2017-12-11T14:36:01.296Z,216
2017-12-11T14:37:23.304Z,208
2017-12-11T14:38:45.536Z,204
2017-12-11T14:40:07.550Z,200
2017-12-11T14:41:29.545Z,200
2017-12-11T14:42:51.803Z,208
2017-12-11T14:44:13.785Z,224
2017-12-11T14:45:35.756Z,228
2017-12-11T14:46:58.038Z,212
2017-12-11T14:48:20.293Z,196
2017-12-11T14:49:42.393Z,172
2017-12-11T14:51:04.684Z,156
2017-12-11T14:52:26.140Z,148
2017-12-11T14:53:48.219Z,136
2017-12-11T14:55:10.201Z,128
2017-12-11T14:56:32.575Z,116
2017-12-11T14:57:54.818Z,108
2017-12-11T14:59:17.053Z,96
2017-12-11T15:00:38.907Z,92
2017-12-11T15:02:00.726Z,88
2017-12-11T15:03:22.439Z,80
2017-12-11T15:04:44.148Z,76
2017-12-11T15:06:05.845Z,68
2017-12-11T15:07:27.311Z,64
2017-12-11T15:08:49.515Z,60
2017-12-11T15:10:11.235Z,52
2017-12-11T15:11:33.000Z,44
2017-12-11T15:12:55.261Z,40
2017-12-11T15:14:17.481Z,36
2017-12-11T15:15:39.264Z,36
2017-12-11T15:17:00.707Z,28
2017-12-11T15:18:22.948Z,24
2017-12-11T15:19:44.938Z,24
2017-12-11T15:21:07.185Z,20
2017-12-11T15:22:29.430Z,20
2017-12-11T15:23:51.761Z,12
2017-12-11T15:25:14.010Z,12
2017-12-11T15:26:36.334Z,12
2017-12-11T15:27:57.897Z,8
2017-12-11T15:29:19.583Z,8
2017-12-11T15:30:41.297Z,8
2017-12-11T15:32:03.286Z,4
2017-12-11T15:33:24.998Z,4
2017-12-11T15:34:46.726Z,0
2017-12-11T15:36:08.715Z,4
2017-12-11T15:37:30.710Z,4
2017-12-11T15:38:53.077Z,4
2017-12-11T15:40:15.092Z,0
2017-12-11T15:41:36.787Z,0
2017-12-11T15:42:59.005Z,0
2017-12-11T15:44:21.266Z,0
2017-12-11T15:45:43.234Z,0
2017-12-11T15:47:05.284Z,0
2017-12-11T15:48:27.535Z,0
2017-12-11T15:49:49.345Z,0
2017-12-11T15:51:11.335Z,0
2017-12-11T15:52:32.817Z,0
2017-12-11T15:53:55.074Z,0
2017-12-11T15:55:17.400Z,0
2017-12-11T15:56:39.385Z,0
2017-12-11T15:58:01.710Z,8
2017-12-11T15:59:23.746Z,0
2017-12-11T16:00:45.462Z,0
2017-12-11T16:02:07.475Z,0
2017-12-11T16:03:29.767Z,0
2017-12-11T16:04:52.047Z,0
2017-12-11T16:06:14.307Z,0
2017-12-11T16:07:36.288Z,0
2017-12-11T16:08:58.540Z,0
2017-12-11T16:10:20.528Z,0
2017-12-11T16:11:42.556Z,0
2017-12-11T16:13:04.815Z,0
2017-12-11T16:14:26.806Z,0
2017-12-11T16:15:49.146Z,0
2017-12-11T16:17:11.529Z,0
2017-12-11T16:18:33.247Z,0
2017-12-11T16:19:55.507Z,0
2017-12-11T16:21:17.514Z,0
2017-12-11T16:22:39.496Z,0
2017-12-11T16:24:01.758Z,0
2017-12-11T16:25:23.538Z,0
2017-12-11T16:26:45.635Z,0
2017-12-11T16:28:07.722Z,0
2017-12-11T16:29:29.436Z,0
2017-12-11T16:30:51.476Z,0
2017-12-11T16:32:13.196Z,0
2017-12-11T16:33:35.583Z,0
2017-12-11T16:34:57.311Z,0
2017-12-11T16:36:19.578Z,0
2017-12-11T16:37:41.567Z,0
2017-12-11T16:39:03.815Z,0
2017-12-11T16:40:26.184Z,0
2017-12-11T16:41:48.168Z,0
2017-12-11T16:43:09.742Z,0
2017-12-11T16:44:31.976Z,0
2017-12-11T16:45:54.233Z,0
2017-12-11T16:47:15.944Z,0
2017-12-11T16:48:38.291Z,0
2017-12-11T16:50:00.302Z,0
2017-12-11T16:51:22.589Z,0
2017-12-11T16:52:44.046Z,0
2017-12-11T16:54:05.542Z,0
2017-12-11T16:55:27.837Z,0
2017-12-11T16:56:50.107Z,0
2017-12-11T16:58:12.627Z,0
2017-12-11T16:59:34.623Z,0
2017-12-11T17:00:56.483Z,0
2017-12-11T17:02:18.487Z,0
2017-12-11T17:03:40.924Z,0
2017-12-11T17:05:02.706Z,0
2017-12-11T17:06:24.433Z,0
2017-12-11T17:07:46.435Z,0
2017-12-11T17:09:08.754Z,0
2017-12-11T17:10:30.771Z,0
2017-12-11T17:11:53.179Z,0
2017-12-11T17:13:15.586Z,0
2017-12-11T17:14:37.586Z,0
2017-12-11T17:15:59.402Z,0
2017-12-11T17:17:21.478Z,0
2017-12-11T17:18:43.729Z,0
2017-12-11T17:20:06.057Z,0
2017-12-11T17:21:28.339Z,0
2017-12-11T17:22:50.385Z,0
2017-12-11T17:24:12.668Z,0
2017-12-11T17:25:34.984Z,0
2017-12-11T17:26:57.311Z,0
2017-12-11T17:28:19.677Z,0
2017-12-11T17:29:41.707Z,0
2017-12-11T17:31:03.774Z,0
2017-12-11T17:32:25.549Z,0
2017-12-11T17:33:47.537Z,0
2017-12-11T17:35:09.824Z,0
2017-12-11T17:36:31.268Z,0
2017-12-11T17:37:53.552Z,0
2017-12-11T17:39:15.276Z,0
2017-12-11T17:40:37.068Z,0
2017-12-11T17:41:58.836Z,0
2017-12-11T17:43:21.185Z,0
2017-12-11T17:44:42.935Z,0
2017-12-11T17:46:04.398Z,0
2017-12-11T17:47:26.392Z,0
2017-12-11T17:48:48.373Z,0
2017-12-11T17:50:10.015Z,0
2017-12-11T17:51:31.843Z,0
2017-12-11T17:52:53.564Z,0
2017-12-11T17:54:15.574Z,0
2017-12-11T17:55:38.136Z,0
2017-12-11T17:57:00.677Z,0
2017-12-11T17:58:22.830Z,0
2017-12-11T17:59:45.155Z,0
2017-12-11T18:01:07.266Z,0
2017-12-11T18:02:29.562Z,0
2017-12-11T18:03:51.553Z,0
2017-12-11T18:05:13.667Z,0
2017-12-11T18:06:35.944Z,0
2017-12-11T18:07:57.685Z,0
2017-12-11T18:09:20.211Z,0
2017-12-11T18:10:42.214Z,0
2017-12-11T18:12:04.539Z,0
2017-12-11T18:13:26.584Z,0
2017-12-11T18:14:49.015Z,0
2017-12-11T18:16:11.465Z,0
2017-12-11T18:17:33.196Z,0
2017-12-11T18:18:54.918Z,0
2017-12-11T18:20:16.701Z,0
2017-12-11T18:21:38.442Z,0
2017-12-11T18:23:00.446Z,0
2017-12-11T18:24:22.530Z,0
2017-12-11T18:25:44.493Z,0
2017-12-11T18:27:06.861Z,0
2017-12-11T18:28:29.148Z,0
2017-12-11T18:29:51.615Z,0
2017-12-11T18:31:13.935Z,0
2017-12-11T18:32:35.654Z,0
2017-12-11T18:33:57.759Z,0
2017-12-11T18:35:20.073Z,0
2017-12-11T18:36:42.294Z,0
2017-12-11T18:38:04.296Z,0
2017-12-11T18:39:26.313Z,0
2017-12-11T18:40:48.598Z,0
2017-12-11T18:42:10.381Z,0
2017-12-11T18:43:32.717Z,0
2017-12-11T18:44:54.429Z,0
2017-12-11T18:46:16.696Z,0
2017-12-11T18:47:38.425Z,0
2017-12-11T18:49:00.598Z,0
2017-12-11T18:50:22.975Z,0
2017-12-11T18:51:45.314Z,0
2017-12-11T18:53:07.673Z,0
2017-12-11T18:54:29.687Z,0
2017-12-11T18:55:51.713Z,0
2017-12-11T18:57:13.987Z,0
2017-12-11T18:58:36.262Z,0
2017-12-11T18:59:58.638Z,0
2017-12-11T19:01:20.974Z,0
2017-12-11T19:02:43.064Z,0
2017-12-11T19:04:05.395Z,0
2017-12-11T19:05:27.513Z,0
2017-12-11T19:06:49.520Z,0
2017-12-11T19:08:11.646Z,0
2017-12-11T19:09:33.446Z,0
2017-12-11T19:10:55.470Z,0
2017-12-11T19:12:17.750Z,0
2017-12-11T19:13:40.206Z,0
2017-12-11T19:15:01.399Z,0
2017-12-11T19:16:23.458Z,0
2017-12-11T19:17:45.727Z,0
2017-12-11T19:19:07.775Z,0
2017-12-11T19:20:30.055Z,0
2017-12-11T19:21:52.058Z,0